Time;durP1;ratioP1;P1;durP2;ratioP2;P2;SDS_P1;SDS_P2;PMS_P1;PMS_P2;Temp;Humidity;BMP_temperature;BMP_pressure;BME280_temperature;BME280_humidity;BME280_pressure;Samples;Min_cycle;Max_cycle;Signal;HPM_P1;HPM_P2
2022/04/30 00:00:58;;;;;;;10.90;4.82;;;;;;;4.34;92.80;103013.09;4974912;28;20035;-72
2022/04/30 00:03:28;;;;;;;8.23;4.70;;;;;;;4.32;92.77;103011.31;4967846;28;20044;-71
2022/04/30 00:05:56;;;;;;;9.77;4.50;;;;;;;4.29;92.87;103009.53;4970925;28;20073;-72
2022/04/30 00:08:22;;;;;;;9.68;4.78;;;;;;;4.28;92.77;103014.72;4975279;28;20086;-72
2022/04/30 00:10:50;;;;;;;9.35;4.50;;;;;;;4.26;92.89;103005.97;4993021;28;20030;-72
2022/04/30 00:13:16;;;;;;;13.10;5.00;;;;;;;4.26;92.89;103000.72;4994204;28;20094;-72
2022/04/30 00:15:41;;;;;;;5.72;3.70;;;;;;;4.27;93.28;102999.84;4983256;28;20157;-72
2022/04/30 00:18:10;;;;;;;7.55;3.55;;;;;;;4.28;93.67;102992.03;4997270;28;20033;-72
2022/04/30 00:20:36;;;;;;;8.50;4.35;;;;;;;4.27;93.86;102997.25;4996488;28;20029;-72
2022/04/30 00:23:05;;;;;;;4.55;3.33;;;;;;;4.29;94.15;102996.41;4985304;28;20033;-73
2022/04/30 00:25:31;;;;;;;7.03;3.45;;;;;;;4.29;94.12;102993.78;4999781;28;20044;-72
2022/04/30 00:27:57;;;;;;;6.13;3.80;;;;;;;4.30;93.82;102999.94;4999549;28;20026;-72
2022/04/30 00:30:22;;;;;;;5.95;3.83;;;;;;;4.28;93.62;102988.50;5004705;28;20029;-72
2022/04/30 00:32:48;;;;;;;9.45;4.13;;;;;;;4.25;93.74;102994.59;5003192;28;20492;-72
2022/04/30 00:35:14;;;;;;;6.35;3.67;;;;;;;4.24;93.95;102997.22;4990232;28;20034;-72
2022/04/30 00:37:41;;;;;;;4.85;3.28;;;;;;;4.24;94.10;102989.34;5000095;28;21650;-72
2022/04/30 00:40:07;;;;;;;4.35;3.40;;;;;;;4.23;94.20;102984.97;4998936;28;20026;-72
2022/04/30 00:42:33;;;;;;;8.32;3.70;;;;;;;4.20;94.74;102981.41;5000234;28;20045;-72
2022/04/30 00:44:58;;;;;;;6.63;3.70;;;;;;;4.19;94.28;102990.13;4998392;28;20119;-72
2022/04/30 00:47:26;;;;;;;4.97;3.28;;;;;;;4.16;94.49;102978.72;5003305;28;20473;-73
2022/04/30 00:49:51;;;;;;;6.00;3.60;;;;;;;4.15;95.01;102974.34;4999096;28;20183;-72
2022/04/30 00:52:17;;;;;;;6.72;3.45;;;;;;;4.13;95.49;102973.44;4971278;28;20641;-73
2022/04/30 00:54:49;;;;;;;6.53;3.65;;;;;;;4.12;95.38;102972.53;4997463;28;20396;-72
2022/04/30 00:57:17;;;;;;;5.72;3.55;;;;;;;4.12;95.16;102969.91;5000051;28;20500;-72
2022/04/30 00:59:43;;;;;;;5.50;3.58;;;;;;;4.15;95.43;102976.97;4982548;28;20069;-72
2022/04/30 01:02:10;;;;;;;6.30;3.97;;;;;;;4.18;95.57;102972.63;4983322;28;20144;-72
2022/04/30 01:04:36;;;;;;;6.22;3.63;;;;;;;4.23;95.93;102969.22;4999875;28;20040;-73
2022/04/30 01:07:08;;;;;;;6.35;4.10;;;;;;;4.28;96.38;102971.03;5000067;28;20032;-72
2022/04/30 01:09:41;;;;;;;6.95;4.43;;;;;;;4.33;96.57;102968.47;4996619;28;20057;-72
2022/04/30 01:12:10;;;;;;;5.68;4.03;;;;;;;4.40;96.89;102964.22;4990051;28;20428;-72
2022/04/30 01:14:37;;;;;;;4.63;3.65;;;;;;;4.48;96.57;102971.31;4999289;28;20049;-72
2022/04/30 01:17:05;;;;;;;7.68;3.92;;;;;;;4.57;97.37;102965.31;4994500;28;20037;-72
2022/04/30 01:19:32;;;;;;;6.18;4.10;;;;;;;4.65;97.35;102964.56;4990333;28;20044;-73
2022/04/30 01:22:00;;;;;;;6.93;3.88;;;;;;;4.74;96.87;102959.44;4992637;28;20033;-71
2022/04/30 01:24:28;;;;;;;6.88;4.05;;;;;;;4.83;97.76;102961.28;4987569;28;20041;-73
2022/04/30 01:26:55;;;;;;;5.82;3.70;;;;;;;4.89;97.17;102953.47;4991394;28;20038;-73
2022/04/30 01:29:23;;;;;;;11.05;3.78;;;;;;;4.94;97.07;102948.28;4991062;28;20463;-73
2022/04/30 01:37:25;;;;;;;6.50;3.60;;;;;;;5.12;97.45;102942.38;4983094;28;20038;-72
2022/04/30 01:40:10;;;;;;;6.30;3.90;;;;;;;5.18;97.27;102942.47;4995191;28;20207;-72
2022/04/30 01:42:39;;;;;;;6.93;3.75;;;;;;;5.25;97.25;102943.38;4998828;28;20030;-72
2022/04/30 01:45:05;;;;;;;5.65;4.00;;;;;;;5.28;97.02;102939.06;4981600;28;20030;-71
2022/04/30 01:47:33;;;;;;;6.68;4.07;;;;;;;5.34;97.29;102937.34;4982081;28;20306;-72
2022/04/30 01:49:59;;;;;;;5.40;3.97;;;;;;;5.39;97.07;102935.66;4980575;28;20065;-70
2022/04/30 01:52:25;;;;;;;7.70;4.25;;;;;;;5.43;97.08;102933.06;4981866;28;20059;-71
2022/04/30 01:54:50;;;;;;;8.65;4.55;;;;;;;5.49;97.33;102927.00;4996785;28;21558;-71
2022/04/30 01:57:23;;;;;;;7.47;4.25;;;;;;;5.55;97.39;102923.53;4997775;28;20065;-71
2022/04/30 01:59:55;;;;;;;6.75;3.97;;;;;;;5.60;97.68;102924.47;4997898;28;20044;-71
2022/04/30 02:02:23;;;;;;;6.45;4.50;;;;;;;5.63;97.36;102920.97;4979619;28;20601;-72
2022/04/30 02:04:54;;;;;;;8.15;4.55;;;;;;;5.66;97.04;102916.63;4979840;28;20171;-71
2022/04/30 02:07:20;;;;;;;6.32;3.85;;;;;;;5.70;96.65;102914.91;4997999;28;20047;-71
2022/04/30 02:09:47;;;;;;;5.95;4.63;;;;;;;5.74;97.49;102913.19;4977795;28;20111;-71
2022/04/30 02:12:13;;;;;;;5.28;3.95;;;;;;;5.78;97.46;102910.59;4979607;28;20037;-72
2022/04/30 02:14:40;;;;;;;4.80;3.65;;;;;;;5.82;97.54;102912.38;4999554;28;20483;-72
2022/04/30 02:17:08;;;;;;;6.25;3.83;;;;;;;5.84;96.59;102910.63;5000229;28;20034;-72
2022/04/30 02:20:18;;;;;;;6.35;3.67;;;;;;;5.86;96.99;102905.41;4970750;28;20485;-72
2022/04/30 02:22:19;;;;;;;6.28;3.90;;;;;;;5.88;96.96;102894.91;4996993;28;20038;-72
2022/04/30 02:24:45;;;;;;;5.45;3.95;;;;;;;5.89;97.12;102884.38;4980447;28;20053;-72
2022/04/30 02:27:12;;;;;;;3.78;3.35;;;;;;;5.90;97.00;102883.53;4996817;28;20514;-72
2022/04/30 02:29:38;;;;;;;7.78;3.55;;;;;;;5.91;97.37;102879.13;4998809;28;20044;-72
2022/04/30 02:32:04;;;;;;;6.78;3.80;;;;;;;5.92;96.89;102875.63;4995446;28;20029;-72
2022/04/30 02:34:29;;;;;;;6.43;3.70;;;;;;;5.93;97.29;102873.00;4990917;28;20034;-72
2022/04/30 02:36:55;;;;;;;5.40;3.50;;;;;;;5.95;97.43;102873.03;4997148;28;20385;-72
2022/04/30 02:39:20;;;;;;;5.05;3.70;;;;;;;5.99;97.05;102869.53;5000049;28;20061;-72
2022/04/30 02:41:46;;;;;;;4.22;2.97;;;;;;;6.01;97.83;102865.19;4997154;28;20046;-72
2022/04/30 02:44:11;;;;;;;4.57;3.35;;;;;;;6.03;97.27;102866.09;5001639;28;20155;-72
2022/04/30 02:46:37;;;;;;;4.30;3.40;;;;;;;6.05;97.53;102863.50;5005013;28;20454;-72
2022/04/30 02:49:02;;;;;;;4.13;3.17;;;;;;;6.07;97.10;102862.63;5002150;28;20126;-72
2022/04/30 02:51:28;;;;;;;5.80;3.55;;;;;;;6.08;97.20;102863.50;5000717;28;20164;-72
2022/04/30 02:53:54;;;;;;;4.75;3.28;;;;;;;6.08;96.95;102864.38;4999054;28;20057;-72
2022/04/30 02:56:20;;;;;;;4.18;3.22;;;;;;;6.10;97.18;102870.53;4990577;28;20034;-72
2022/04/30 03:01:29;;;;;;;6.13;3.72;;;;;;;6.09;97.42;102858.25;4998177;28;20029;-72
2022/04/30 03:03:55;;;;;;;3.80;2.92;;;;;;;6.09;96.80;102855.63;5000763;28;20037;-72
2022/04/30 03:06:22;;;;;;;5.03;3.50;;;;;;;6.07;97.08;102848.59;4980936;28;20489;-72
2022/04/30 03:08:48;;;;;;;5.15;3.08;;;;;;;6.07;97.11;102846.84;4999038;28;20171;-72
2022/04/30 03:11:14;;;;;;;4.00;3.20;;;;;;;6.05;97.00;102851.19;4995915;28;20038;-72
2022/04/30 03:13:39;;;;;;;4.43;3.30;;;;;;;6.04;96.69;102841.56;4984314;28;20725;-72
2022/04/30 03:21:46;;;;;;;5.97;3.20;;;;;;;5.97;96.38;102831.84;4934667;28;20059;-72
2022/04/30 03:24:17;;;;;;;3.92;3.15;;;;;;;5.94;96.47;102837.97;4985523;28;20461;-72
2022/04/30 03:26:47;;;;;;;5.10;2.88;;;;;;;5.91;96.49;102829.19;4999777;28;21870;-72
2022/04/30 03:29:14;;;;;;;4.53;3.15;;;;;;;5.85;96.22;102828.25;5000069;28;20033;-72
2022/04/30 03:31:41;;;;;;;5.25;3.17;;;;;;;5.82;96.15;102828.25;4981224;28;21308;-72
2022/04/30 03:34:10;;;;;;;6.30;2.90;;;;;;;5.76;96.19;102830.84;5001586;28;20037;-72
2022/04/30 03:36:36;;;;;;;4.13;3.40;;;;;;;5.72;95.77;102823.78;4986160;28;20281;-71
2022/04/30 03:39:03;;;;;;;4.18;3.05;;;;;;;5.67;95.93;102829.03;4999524;28;20022;-71
2022/04/30 03:41:28;;;;;;;3.78;2.97;;;;;;;5.65;95.65;102827.25;4991442;28;20512;-72
2022/04/30 03:43:54;;;;;;;5.68;3.30;;;;;;;5.61;95.32;102831.59;5001083;28;20029;-72
2022/04/30 03:46:19;;;;;;;5.55;2.92;;;;;;;5.57;95.60;102827.22;4976260;28;20124;-72
2022/04/30 03:48:45;;;;;;;4.50;3.25;;;;;;;5.55;96.34;102832.44;4985676;28;20117;-72
2022/04/30 03:51:11;;;;;;;6.78;3.60;;;;;;;5.54;95.69;102835.94;4990419;28;20535;-72
2022/04/30 03:53:36;;;;;;;4.50;3.53;;;;;;;5.53;96.26;102828.94;4980487;28;20030;-72
2022/04/30 03:56:02;;;;;;;4.43;3.00;;;;;;;5.54;95.75;102821.91;4982341;28;20105;-72
2022/04/30 03:58:28;;;;;;;5.72;3.55;;;;;;;5.57;96.42;102832.47;4981633;28;20038;-72
2022/04/30 04:00:54;;;;;;;5.00;3.63;;;;;;;5.58;96.75;102831.59;4985298;28;20365;-72
2022/04/30 04:03:21;;;;;;;4.63;3.63;;;;;;;5.60;96.37;102827.22;4981516;28;20426;-72
2022/04/30 04:05:51;;;;;;;5.80;3.50;;;;;;;5.61;96.32;102823.72;4979709;28;20044;-72
2022/04/30 04:08:17;;;;;;;6.70;3.53;;;;;;;5.62;96.79;102814.97;4994229;28;20111;-72
2022/04/30 04:10:42;;;;;;;5.97;3.53;;;;;;;5.64;96.47;102829.00;4991734;28;20056;-72
2022/04/30 04:18:37;;;;;;;5.97;3.53;;;;;;;5.71;97.68;102811.53;4981292;28;20552;-72
2022/04/30 04:21:03;;;;;;;7.03;3.72;;;;;;;5.72;97.68;102815.91;4980168;28;20041;-72
2022/04/30 04:23:28;;;;;;;4.47;3.30;;;;;;;5.73;97.35;102820.31;4978885;28;20044;-72
2022/04/30 04:26:00;;;;;;;4.35;3.30;;;;;;;5.75;97.73;102815.06;4953833;28;20046;-72
2022/04/30 04:28:29;;;;;;;4.47;3.40;;;;;;;5.76;97.61;102822.97;4988366;28;20194;-72
2022/04/30 04:30:57;;;;;;;5.18;3.78;;;;;;;5.78;97.74;102817.72;4969672;28;20044;-72
2022/04/30 04:33:22;;;;;;;5.70;3.47;;;;;;;5.80;97.20;102818.59;4954928;28;20030;-72
2022/04/30 04:35:48;;;;;;;5.68;3.53;;;;;;;5.80;97.48;102822.13;4980774;28;20100;-72
2022/04/30 04:38:13;;;;;;;4.47;3.30;;;;;;;5.82;97.57;102814.22;4972595;28;20050;-72
2022/04/30 04:40:39;;;;;;;5.10;3.67;;;;;;;5.83;97.54;102813.38;4977627;28;20033;-72
2022/04/30 04:43:04;;;;;;;5.18;2.95;;;;;;;5.84;97.26;102812.50;4975926;28;20073;-72
2022/04/30 04:45:30;;;;;;;5.25;3.65;;;;;;;5.85;97.50;102809.00;4961496;28;20034;-72
2022/04/30 04:47:56;;;;;;;4.78;3.63;;;;;;;5.88;97.35;102814.25;4973392;28;20117;-72
2022/04/30 04:50:23;;;;;;;4.53;3.58;;;;;;;5.90;97.58;102815.16;4961895;28;20034;-72
2022/04/30 04:52:48;;;;;;;5.45;3.30;;;;;;;5.91;97.58;102808.13;4971085;28;20045;-72
2022/04/30 04:55:15;;;;;;;6.65;3.60;;;;;;;5.92;97.83;102804.63;4943391;28;20229;-72
2022/04/30 04:57:41;;;;;;;6.63;4.00;;;;;;;5.93;97.28;102802.03;4970049;28;20090;-72
2022/04/30 05:00:08;;;;;;;6.28;3.95;;;;;;;5.95;97.74;102805.53;4979250;28;20538;-72
2022/04/30 05:02:33;;;;;;;6.07;3.97;;;;;;;5.96;97.82;102807.31;4965347;28;20460;-72
2022/04/30 05:04:59;;;;;;;5.22;3.45;;;;;;;6.00;97.40;102802.06;4979612;28;20033;-72
2022/04/30 05:07:25;;;;;;;7.15;4.13;;;;;;;6.01;97.95;102799.44;4978131;28;20222;-72
2022/04/30 05:09:51;;;;;;;5.25;3.70;;;;;;;6.03;97.80;102804.72;4962088;28;20473;-72
2022/04/30 05:12:17;;;;;;;6.40;4.25;;;;;;;6.05;97.83;102800.38;4967063;28;20034;-72
2022/04/30 05:14:43;;;;;;;5.82;3.67;;;;;;;6.06;98.00;102805.63;4976553;28;20042;-72
2022/04/30 05:17:08;;;;;;;5.72;3.67;;;;;;;6.07;97.89;102804.78;4962405;28;20085;-72
2022/04/30 05:19:34;;;;;;;6.82;4.00;;;;;;;6.10;98.00;102804.78;4980038;28;20039;-72
2022/04/30 05:22:00;;;;;;;5.63;3.92;;;;;;;6.14;98.02;102810.06;4977137;28;20398;-72
2022/04/30 05:24:25;;;;;;;7.50;4.57;;;;;;;6.17;97.89;102817.97;4978120;28;20145;-72
2022/04/30 05:26:51;;;;;;;5.40;3.65;;;;;;;6.20;98.42;102815.31;4975731;28;20042;-72
2022/04/30 05:29:17;;;;;;;6.32;4.07;;;;;;;6.25;98.38;102816.22;4965594;28;20036;-72
2022/04/30 05:31:43;;;;;;;7.35;4.10;;;;;;;6.30;98.26;102817.13;4976615;28;20030;-72
2022/04/30 05:34:09;;;;;;;6.20;3.83;;;;;;;6.36;97.95;102819.78;4965965;28;20038;-72
2022/04/30 05:36:34;;;;;;;6.55;4.38;;;;;;;6.39;97.71;102817.16;4978076;28;20029;-71
2022/04/30 05:39:00;;;;;;;6.53;4.00;;;;;;;6.43;97.76;102814.56;4977423;28;20054;-71
2022/04/30 05:41:28;;;;;;;6.20;4.28;;;;;;;6.47;98.19;102818.94;4944824;28;20509;-71
2022/04/30 05:43:54;;;;;;;8.80;4.63;;;;;;;6.47;98.00;102830.34;4977301;28;20036;-71
2022/04/30 05:46:20;;;;;;;7.50;4.93;;;;;;;6.49;98.34;102827.75;4960027;28;20034;-71
2022/04/30 05:48:45;;;;;;;7.15;4.97;;;;;;;6.50;98.48;102829.50;4979215;28;20034;-72
2022/04/30 05:51:11;;;;;;;7.03;4.78;;;;;;;6.52;98.45;102833.00;4974470;28;20163;-72
2022/04/30 05:53:36;;;;;;;5.63;4.45;;;;;;;6.55;98.60;102832.13;4976636;28;20673;-71
2022/04/30 05:56:02;;;;;;;5.40;4.22;;;;;;;6.61;99.05;102832.16;4973636;28;20037;-72
2022/04/30 05:58:27;;;;;;;9.20;4.65;;;;;;;6.71;98.94;102827.81;4961367;28;20028;-72
2022/04/30 06:00:53;;;;;;;7.88;4.70;;;;;;;6.89;99.66;102833.13;4978164;28;20523;-72
2022/04/30 06:03:18;;;;;;;7.72;5.30;;;;;;;7.20;99.66;102825.22;4976447;28;20046;-72
2022/04/30 06:05:44;;;;;;;11.18;5.20;;;;;;;7.59;99.83;102829.63;4961614;28;20682;-71
2022/04/30 06:08:09;;;;;;;8.15;5.10;;;;;;;7.95;99.59;102825.16;4960592;28;20736;-71
2022/04/30 06:10:35;;;;;;;8.00;5.28;;;;;;;8.31;97.97;102829.44;4978404;28;20165;-72
2022/04/30 06:13:01;;;;;;;8.77;4.85;;;;;;;8.64;97.72;102833.72;4963738;28;20038;-71
2022/04/30 06:15:28;;;;;;;9.10;4.93;;;;;;;8.92;96.91;102828.28;4955686;28;20059;-71
2022/04/30 06:17:53;;;;;;;7.90;5.45;;;;;;;9.23;96.33;102824.53;4959005;28;20118;-71
2022/04/30 06:20:19;;;;;;;7.35;4.70;;;;;;;9.57;95.15;102829.50;4974559;28;20044;-72
2022/04/30 06:22:44;;;;;;;6.45;4.50;;;;;;;9.96;95.64;102830.91;4976561;28;20088;-71
2022/04/30 06:25:13;;;;;;;9.05;4.63;;;;;;;10.32;93.95;102829.59;4983514;28;20630;-72
2022/04/30 06:27:39;;;;;;;5.43;4.05;;;;;;;10.55;92.31;102832.84;4982687;28;20030;-72
2022/04/30 06:30:06;;;;;;;6.15;4.13;;;;;;;10.51;91.08;102828.50;4980393;28;20041;-72
2022/04/30 06:32:32;;;;;;;6.25;3.80;;;;;;;10.43;90.03;102831.25;4984794;28;20030;-72
2022/04/30 06:34:58;;;;;;;6.20;3.92;;;;;;;10.35;89.79;102836.59;4983988;28;20037;-72
2022/04/30 06:37:23;;;;;;;5.88;4.13;;;;;;;10.28;89.14;102829.63;4982332;28;20074;-72
2022/04/30 06:39:49;;;;;;;6.60;4.50;;;;;;;10.24;89.94;102825.28;4982180;28;20104;-72
2022/04/30 06:42:14;;;;;;;3.83;3.30;;;;;;;10.12;88.70;102832.47;4981197;28;20164;-71
2022/04/30 06:44:40;;;;;;;6.15;3.83;;;;;;;10.03;88.91;102822.84;4981768;28;20033;-73
2022/04/30 06:47:06;;;;;;;6.20;4.13;;;;;;;9.97;89.42;102824.72;4976394;28;20445;-71
2022/04/30 06:49:31;;;;;;;6.40;4.40;;;;;;;9.92;89.13;102828.28;4973371;28;20030;-72
2022/04/30 06:51:56;;;;;;;8.32;4.20;;;;;;;9.83;89.05;102828.38;4981196;28;20046;-71
2022/04/30 06:57:11;;;;;;;7.30;4.70;;;;;;;9.73;90.05;102817.03;4982064;28;20038;-70
2022/04/30 06:59:40;;;;;;;5.85;4.30;;;;;;;9.71;90.25;102815.28;4984092;28;20104;-71
2022/04/30 07:02:07;;;;;;;7.22;4.00;;;;;;;9.69;89.50;102819.72;4962599;28;20140;-71
2022/04/30 07:04:32;;;;;;;8.85;3.95;;;;;;;9.71;90.00;102821.47;4980574;28;20034;-71
2022/04/30 07:06:59;;;;;;;8.20;4.47;;;;;;;9.75;90.05;102824.94;4981606;28;20032;-71
2022/04/30 07:09:25;;;;;;;5.13;4.00;;;;;;;9.76;89.97;102814.31;4980214;28;20046;-72
2022/04/30 07:11:51;;;;;;;4.90;4.00;;;;;;;9.85;89.70;102826.59;4981053;28;20428;-71
2022/04/30 07:14:16;;;;;;;7.07;4.10;;;;;;;9.97;88.62;102820.28;4963821;28;20599;-71
2022/04/30 07:16:42;;;;;;;6.93;4.57;;;;;;;10.03;88.94;102819.34;4978283;28;20046;-78
2022/04/30 07:19:08;;;;;;;5.38;4.25;;;;;;;10.08;88.49;102817.50;4969613;28;20259;-73
2022/04/30 07:21:33;;;;;;;5.47;3.72;;;;;;;10.13;88.56;102817.47;4981605;28;20056;-74
2022/04/30 07:23:59;;;;;;;6.20;4.05;;;;;;;10.17;88.39;102820.06;4979696;28;20499;-73
2022/04/30 07:26:25;;;;;;;6.82;4.03;;;;;;;10.18;87.65;102824.44;4979864;28;20149;-73
2022/04/30 07:28:51;;;;;;;5.47;3.97;;;;;;;10.12;87.28;102823.63;4985031;28;20104;-72
2022/04/30 07:31:17;;;;;;;5.32;3.85;;;;;;;10.09;87.61;102827.22;4978915;28;21426;-74
2022/04/30 07:33:43;;;;;;;4.50;3.95;;;;;;;10.12;87.11;102827.16;4982143;28;20049;-73
2022/04/30 07:36:08;;;;;;;6.45;3.97;;;;;;;10.17;86.97;102824.47;4980916;28;20038;-73
2022/04/30 07:38:34;;;;;;;6.35;3.95;;;;;;;10.13;86.76;102834.22;4982068;28;20061;-73
2022/04/30 07:40:59;;;;;;;6.22;3.95;;;;;;;10.13;86.83;102834.22;4978688;28;20062;-73
2022/04/30 07:43:25;;;;;;;4.80;3.75;;;;;;;10.22;86.64;102838.53;4963808;28;20050;-74
2022/04/30 07:45:50;;;;;;;4.95;3.70;;;;;;;10.41;86.72;102831.22;4964605;28;20362;-73
2022/04/30 07:48:16;;;;;;;5.05;3.75;;;;;;;10.58;86.42;102825.72;4982924;28;20050;-73
2022/04/30 07:50:44;;;;;;;5.63;3.80;;;;;;;10.65;85.18;102826.53;4966679;28;20130;-73
2022/04/30 07:53:12;;;;;;;3.92;2.95;;;;;;;10.59;84.83;102829.25;4962217;28;20038;-73
2022/04/30 07:55:39;;;;;;;5.68;3.25;;;;;;;10.51;84.74;102829.34;4973867;28;20042;-73
2022/04/30 07:58:04;;;;;;;3.75;3.08;;;;;;;10.41;84.26;102825.91;4975728;28;20077;-73
2022/04/30 08:00:30;;;;;;;4.53;2.40;;;;;;;10.32;83.85;102826.06;4981553;28;20113;-73
2022/04/30 08:02:56;;;;;;;3.90;2.85;;;;;;;10.23;83.45;102823.53;4980552;28;20456;-73
2022/04/30 08:05:25;;;;;;;2.75;2.17;;;;;;;10.19;82.48;102826.19;4975222;28;20044;-73
2022/04/30 08:07:51;;;;;;;5.60;2.90;;;;;;;10.18;82.84;102824.44;4965609;28;20598;-73
2022/04/30 08:10:18;;;;;;;4.32;2.85;;;;;;;10.17;83.38;102822.69;4998537;28;20049;-73
2022/04/30 08:12:43;;;;;;;3.17;2.47;;;;;;;10.26;84.36;102826.13;4983940;28;20049;-73
2022/04/30 08:15:09;;;;;;;3.58;2.53;;;;;;;10.35;84.13;102820.69;4989498;28;20053;-73
2022/04/30 08:17:35;;;;;;;2.28;2.08;;;;;;;10.45;83.26;102821.50;5003028;28;20034;-73
2022/04/30 08:20:01;;;;;;;3.90;2.00;;;;;;;10.40;80.96;102810.94;5002976;28;20037;-73
2022/04/30 08:22:28;;;;;;;3.67;2.40;;;;;;;10.46;80.67;102817.94;4982397;28;20040;-73
2022/04/30 08:24:53;;;;;;;2.53;2.25;;;;;;;10.48;80.09;102816.16;5003562;28;20037;-73
2022/04/30 08:27:19;;;;;;;3.50;2.28;;;;;;;10.48;79.99;102817.94;5001610;28;20100;-72
2022/04/30 08:29:45;;;;;;;5.25;2.60;;;;;;;10.61;80.96;102810.72;5000945;28;20034;-73
2022/04/30 08:32:10;;;;;;;2.80;2.47;;;;;;;10.78;80.45;102806.03;5001644;28;20038;-72
2022/04/30 08:34:36;;;;;;;3.95;2.88;;;;;;;11.07;80.20;102809.13;4995272;28;20409;-73
2022/04/30 08:37:01;;;;;;;3.17;2.70;;;;;;;11.23;79.20;102815.06;5001348;28;20116;-73
2022/04/30 08:39:27;;;;;;;3.38;2.60;;;;;;;11.35;79.46;102811.31;5002517;28;20056;-73
2022/04/30 08:41:53;;;;;;;4.07;3.15;;;;;;;11.48;79.37;102804.91;4980193;28;20041;-73
2022/04/30 08:44:19;;;;;;;4.07;2.65;;;;;;;11.54;78.42;102802.13;4990419;28;20029;-73
2022/04/30 08:46:45;;;;;;;3.90;2.42;;;;;;;11.65;77.35;102806.34;4976963;28;20034;-73
2022/04/30 08:49:11;;;;;;;4.07;2.80;;;;;;;11.70;78.16;102809.81;4995559;28;20249;-73
2022/04/30 08:51:38;;;;;;;3.97;3.08;;;;;;;11.62;77.83;102801.13;4999272;28;20042;-73
2022/04/30 08:54:04;;;;;;;6.85;3.60;;;;;;;11.55;78.17;102810.94;4981648;28;20600;-73
2022/04/30 08:56:30;;;;;;;3.67;2.97;;;;;;;11.49;77.18;102811.94;4999604;28;20026;-73
2022/04/30 08:59:02;;;;;;;4.95;3.35;;;;;;;11.30;76.69;102807.84;4998916;28;20172;-73
2022/04/30 09:01:28;;;;;;;4.67;3.17;;;;;;;11.13;77.22;102811.69;4999730;28;20477;-72
2022/04/30 09:03:55;;;;;;;5.20;2.90;;;;;;;11.04;77.16;102815.34;4986028;28;20444;-75
2022/04/30 09:06:21;;;;;;;2.90;2.50;;;;;;;10.87;75.71;102812.97;4971858;28;20038;-74
2022/04/30 09:08:50;;;;;;;5.00;2.45;;;;;;;10.80;74.44;102816.59;5000333;28;20053;-74
2022/04/30 09:11:15;;;;;;;3.58;2.67;;;;;;;10.71;74.59;102810.56;4985900;28;20046;-74
2022/04/30 09:13:45;;;;;;;2.47;2.10;;;;;;;10.61;74.14;102811.56;4979817;28;20104;-74
2022/04/30 09:16:21;;;;;;;3.30;2.80;;;;;;;10.54;73.80;102809.91;4993626;28;20554;-74
2022/04/30 09:18:48;;;;;;;2.63;2.42;;;;;;;10.54;75.57;102816.09;4996131;28;20030;-74
2022/04/30 09:21:14;;;;;;;2.15;1.98;;;;;;;10.50;75.16;102816.16;4996211;28;20308;-74
2022/04/30 09:23:40;;;;;;;4.57;2.30;;;;;;;10.45;74.32;102811.78;4985952;28;20112;-74
2022/04/30 09:26:09;;;;;;;4.63;2.50;;;;;;;10.40;73.96;102812.72;4995880;28;20030;-73
2022/04/30 09:28:38;;;;;;;4.38;2.90;;;;;;;10.33;74.06;102812.81;4979391;28;20397;-74
2022/04/30 09:31:10;;;;;;;4.22;2.85;;;;;;;10.32;75.55;102812.81;4992011;28;20173;-73
2022/04/30 09:33:37;;;;;;;4.38;3.30;;;;;;;10.32;76.75;102815.47;4997770;28;20485;-73
2022/04/30 09:38:59;;;;;;;3.97;3.05;;;;;;;10.32;77.27;102811.06;4981414;28;20038;-73
2022/04/30 09:41:29;;;;;;;2.97;2.55;;;;;;;10.29;78.14;102812.84;4970609;28;20030;-73
2022/04/30 09:44:04;;;;;;;3.05;2.50;;;;;;;10.30;77.93;102812.81;5001687;28;20429;-73
2022/04/30 09:46:32;;;;;;;4.97;2.80;;;;;;;10.32;78.41;102812.81;4980941;28;20109;-73
2022/04/30 09:54:27;;;;;;;5.68;2.75;;;;;;;10.44;80.15;102812.69;4996313;28;20025;-73
2022/04/30 09:56:53;;;;;;;6.90;2.80;;;;;;;10.48;79.67;102812.63;4997970;28;20131;-73
2022/04/30 09:59:22;;;;;;;4.57;3.10;;;;;;;10.51;79.69;102812.63;4991313;28;20488;-73
2022/04/30 10:01:48;;;;;;;4.03;2.42;;;;;;;10.53;79.73;102808.16;4995245;28;20046;-73
2022/04/30 10:04:18;;;;;;;2.65;2.30;;;;;;;10.56;79.04;102802.81;4999143;28;20568;-73
2022/04/30 10:06:46;;;;;;;3.75;2.72;;;;;;;10.55;78.94;102801.94;5004540;28;21464;-73
2022/04/30 10:09:14;;;;;;;5.65;3.58;;;;;;;10.56;78.86;102798.41;4998161;28;20492;-75
2022/04/30 10:12:13;;;;;;;10.32;4.90;;;;;;;10.61;78.72;102800.13;4981591;28;20128;-73
2022/04/30 10:14:49;;;;;;;5.10;3.25;;;;;;;10.58;78.26;102803.69;4984547;28;20406;-74
2022/04/30 10:17:19;;;;;;;4.68;3.45;;;;;;;10.58;78.34;102796.59;4984811;28;20061;-73
2022/04/30 10:19:55;;;;;;;5.63;3.72;;;;;;;10.63;78.19;102796.56;4982759;28;20090;-73
2022/04/30 10:22:21;;;;;;;5.72;3.92;;;;;;;10.68;78.37;102797.34;4984799;28;20046;-73
2022/04/30 10:24:48;;;;;;;5.03;3.60;;;;;;;10.67;78.51;102787.63;4975243;28;20030;-74
2022/04/30 10:27:15;;;;;;;4.72;3.05;;;;;;;10.55;77.46;102796.66;4980796;28;20705;-73
2022/04/30 10:29:58;;;;;;;3.40;2.70;;;;;;;10.23;76.97;102797.06;4983224;28;20038;-73
2022/04/30 10:32:28;;;;;;;2.75;2.50;;;;;;;9.99;77.03;102791.16;4983231;28;20045;-74
2022/04/30 10:34:54;;;;;;;3.00;2.40;;;;;;;9.77;77.33;102796.69;4984013;28;20124;-74
2022/04/30 10:37:35;;;;;;;4.13;2.20;;;;;;;9.63;76.47;102788.91;4984168;28;20037;-73
2022/04/30 10:40:06;;;;;;;3.50;2.50;;;;;;;9.56;76.50;102790.75;4972985;28;20101;-73
2022/04/30 10:42:44;;;;;;;3.45;2.80;;;;;;;9.45;76.77;102790.84;4980761;28;20589;-73
2022/04/30 10:45:19;;;;;;;3.58;2.95;;;;;;;9.37;78.25;102790.91;4974211;28;21586;-77
2022/04/30 10:47:52;;;;;;;4.45;3.35;;;;;;;9.34;79.07;102788.31;4952673;28;20592;-72
2022/04/30 10:50:18;;;;;;;4.72;3.28;;;;;;;9.31;79.71;102787.47;4968952;28;20478;-72
2022/04/30 10:52:47;;;;;;;4.38;3.30;;;;;;;9.28;79.44;102785.72;4985692;28;20053;-85
2022/04/30 10:55:13;;;;;;;4.75;3.58;;;;;;;9.30;79.89;102781.28;4965249;28;20168;-71
2022/04/30 10:57:42;;;;;;;7.50;3.70;;;;;;;9.32;80.20;102782.13;4983649;28;20312;-70
2022/04/30 11:00:08;;;;;;;7.45;3.97;;;;;;;9.36;80.54;102777.69;4979737;28;20090;-71
2022/04/30 11:02:34;;;;;;;6.13;3.92;;;;;;;9.49;80.80;102779.34;4983212;28;20038;-71
2022/04/30 11:05:01;;;;;;;6.25;3.58;;;;;;;9.54;79.92;102778.44;4971367;28;20511;-70
2022/04/30 11:07:28;;;;;;;5.78;4.20;;;;;;;9.54;80.46;102778.44;4982677;28;20488;-71
2022/04/30 11:09:53;;;;;;;5.10;3.38;;;;;;;9.48;80.13;102774.09;4981037;28;20505;-72
2022/04/30 11:12:19;;;;;;;5.25;3.25;;;;;;;9.40;79.47;102767.97;4979371;28;20034;-72
2022/04/30 11:14:45;;;;;;;3.92;3.28;;;;;;;9.43;79.90;102770.59;4979225;28;20374;-72
2022/04/30 11:17:11;;;;;;;5.68;3.70;;;;;;;9.54;80.41;102775.78;4981789;28;20034;-72
2022/04/30 11:19:44;;;;;;;4.85;2.92;;;;;;;9.59;79.54;102769.53;4983785;28;20030;-72
2022/04/30 11:22:09;;;;;;;5.20;2.85;;;;;;;9.60;78.86;102771.28;4981726;28;20250;-72
2022/04/30 11:24:38;;;;;;;4.00;3.15;;;;;;;9.60;78.69;102763.34;4981255;28;20560;-71
2022/04/30 11:27:06;;;;;;;4.00;2.78;;;;;;;9.69;79.34;102761.53;4982740;28;20030;-71
2022/04/30 11:29:32;;;;;;;3.33;2.65;;;;;;;9.67;78.72;102753.59;4979958;28;20034;-72
2022/04/30 11:31:59;;;;;;;6.05;2.95;;;;;;;9.69;78.87;102756.25;4982285;28;20053;-71
2022/04/30 11:34:25;;;;;;;4.35;3.00;;;;;;;9.71;79.09;102754.44;4982166;28;20101;-72
2022/04/30 11:36:53;;;;;;;2.85;2.25;;;;;;;9.79;79.05;102752.59;4983979;28;20033;-72
2022/04/30 11:39:20;;;;;;;4.50;2.40;;;;;;;9.81;78.24;102755.22;4983638;28;20379;-72
2022/04/30 11:41:50;;;;;;;3.40;2.50;;;;;;;9.86;77.99;102754.25;4982988;28;20037;-72
2022/04/30 11:44:18;;;;;;;5.22;2.78;;;;;;;9.91;78.08;102746.25;4983350;28;20044;-72
2022/04/30 11:46:47;;;;;;;7.47;3.10;;;;;;;10.04;78.07;102739.91;4983011;28;20131;-72
2022/04/30 11:49:20;;;;;;;3.88;2.63;;;;;;;10.17;77.04;102745.94;4983939;28;20037;-72
2022/04/30 11:51:45;;;;;;;;;;;;;;;10.28;76.08;102739.63;4966516;28;20037;-72
2022/04/30 11:54:13;;;;;;;4.65;2.60;;;;;;;10.37;76.38;102744.78;4982720;28;20376;-71
2022/04/30 11:56:42;;;;;;;3.42;2.55;;;;;;;10.52;76.51;102749.00;4982706;28;20389;-72
2022/04/30 11:59:08;;;;;;;5.80;3.10;;;;;;;10.68;76.04;102752.31;4984002;28;20106;-72
2022/04/30 12:01:35;;;;;;;4.40;2.90;;;;;;;10.82;76.34;102745.91;4975163;28;20165;-72